createdAt,value
2023-02-07T00:01:14.464Z,79.92
2023-02-07T00:04:00.526Z,79.96
2023-02-07T00:06:49.188Z,79.67
2023-02-07T00:09:37.469Z,80.20
2023-02-07T00:12:23.403Z,79.63
2023-02-07T00:15:09.277Z,80.00
2023-02-07T00:17:54.670Z,80.39
2023-02-07T00:20:40.104Z,80.14
2023-02-07T00:23:25.329Z,79.92
2023-02-07T00:26:12.174Z,80.02
2023-02-07T00:28:58.826Z,80.50
2023-02-07T00:31:46.218Z,80.42
2023-02-07T00:34:32.323Z,80.29
2023-02-07T00:37:18.154Z,80.38
2023-02-07T00:40:04.199Z,80.30
2023-02-07T00:42:49.554Z,80.71
2023-02-07T00:45:34.737Z,80.77
2023-02-07T00:48:21.115Z,80.19
2023-02-07T00:51:07.012Z,80.19
2023-02-07T00:53:56.616Z,80.60
2023-02-07T00:56:43.080Z,80.76
2023-02-07T00:59:28.293Z,80.61
2023-02-07T01:02:13.591Z,80.62
2023-02-07T01:05:00.340Z,80.52
2023-02-07T01:07:46.108Z,80.68
2023-02-07T01:10:32.331Z,80.90
2023-02-07T01:13:18.331Z,80.83
2023-02-07T01:16:04.324Z,80.83
2023-02-07T01:18:50.108Z,80.71
2023-02-07T01:21:36.146Z,80.37
2023-02-07T01:24:23.140Z,80.80
2023-02-07T01:27:10.927Z,81.13
2023-02-07T01:29:56.518Z,81.51
2023-02-07T01:32:41.889Z,81.38
2023-02-07T01:35:28.611Z,81.25
2023-02-07T01:38:14.238Z,81.16
2023-02-07T01:41:02.573Z,81.12
2023-02-07T01:43:58.889Z,80.62
2023-02-07T01:46:44.203Z,80.74
2023-02-07T01:49:34.414Z,81.17
2023-02-07T01:52:29.531Z,80.77
2023-02-07T01:55:34.210Z,80.72
2023-02-07T01:58:19.797Z,81.34
2023-02-07T02:01:23.892Z,81.57
2023-02-07T02:04:14.449Z,81.43
2023-02-07T02:07:00.426Z,81.52
2023-02-07T02:09:48.626Z,81.43
2023-02-07T02:12:58.265Z,81.38
2023-02-07T02:15:55.577Z,81.23
2023-02-07T02:18:43.907Z,81.41
2023-02-07T02:21:51.050Z,80.91
2023-02-07T02:24:42.409Z,81.34
2023-02-07T02:27:57.676Z,81.76
2023-02-07T02:31:34.446Z,81.13
2023-02-07T02:34:39.989Z,81.45
2023-02-07T02:37:34.600Z,81.06
2023-02-07T02:40:33.900Z,81.01
2023-02-07T02:43:31.286Z,81.08
2023-02-07T02:46:34.929Z,81.22
2023-02-07T02:49:23.003Z,81.12
2023-02-07T02:52:08.490Z,81.24
2023-02-07T02:55:01.473Z,81.12
2023-02-07T02:57:52.353Z,81.51
2023-02-07T03:01:04.985Z,81.62
2023-02-07T03:04:14.729Z,81.02
2023-02-07T03:07:29.653Z,80.97
2023-02-07T03:10:26.618Z,81.17
2023-02-07T03:13:54.223Z,81.36
2023-02-07T03:16:48.430Z,81.45
2023-02-07T03:19:55.398Z,81.24
2023-02-07T03:22:43.411Z,81.56
2023-02-07T03:25:31.593Z,81.08
2023-02-07T03:28:23.884Z,81.30
2023-02-07T03:31:15.730Z,81.24
2023-02-07T03:34:10.145Z,81.70
2023-02-07T03:37:01.144Z,81.42
2023-02-07T03:39:55.830Z,81.75
2023-02-07T03:42:48.199Z,81.76
2023-02-07T03:45:34.022Z,81.83
2023-02-07T03:48:19.784Z,81.74
2023-02-07T03:51:05.385Z,81.74
2023-02-07T03:53:50.984Z,82.17
2023-02-07T03:56:37.258Z,82.03
2023-02-07T03:59:22.568Z,81.52
2023-02-07T04:02:07.899Z,81.86
2023-02-07T04:04:53.227Z,81.95
2023-02-07T04:07:40.516Z,81.72
2023-02-07T04:10:25.913Z,81.59
2023-02-07T04:13:11.345Z,82.25
2023-02-07T04:15:57.212Z,81.87
2023-02-07T04:18:42.698Z,81.75
2023-02-07T04:21:31.176Z,81.90
2023-02-07T04:24:16.501Z,81.90
2023-02-07T04:27:01.957Z,81.96
2023-02-07T04:29:47.068Z,81.53
2023-02-07T04:32:32.458Z,81.63
2023-02-07T04:35:20.787Z,81.43
2023-02-07T04:38:06.269Z,81.44
2023-02-07T04:40:52.266Z,81.50
2023-02-07T04:43:37.955Z,81.48
2023-02-07T04:46:23.660Z,81.58
2023-02-07T04:49:09.352Z,82.01
2023-02-07T04:51:54.803Z,81.38
2023-02-07T04:54:40.311Z,81.55
2023-02-07T04:57:25.492Z,81.66
2023-02-07T05:00:11.479Z,81.64
2023-02-07T05:02:57.521Z,81.71
2023-02-07T05:05:45.617Z,81.30
2023-02-07T05:08:31.088Z,81.32
2023-02-07T05:11:16.922Z,81.76
2023-02-07T05:14:03.459Z,81.66
2023-02-07T05:16:48.816Z,81.47
2023-02-07T05:19:34.172Z,81.77
2023-02-07T05:22:19.434Z,81.75
2023-02-07T05:25:06.204Z,81.68
2023-02-07T05:27:51.777Z,81.34
2023-02-07T05:30:37.362Z,81.31
2023-02-07T05:33:22.721Z,81.51
2023-02-07T05:36:09.578Z,81.70
2023-02-07T05:38:55.333Z,81.53
2023-02-07T05:41:40.584Z,81.68
2023-02-07T05:44:26.292Z,81.90
2023-02-07T05:47:11.669Z,81.93
2023-02-07T05:49:56.961Z,81.83
2023-02-07T05:52:45.574Z,81.16
2023-02-07T05:55:31.134Z,81.83
2023-02-07T05:58:16.599Z,81.38
2023-02-07T06:01:03.807Z,81.46
2023-02-07T06:03:49.181Z,81.13
2023-02-07T06:06:34.730Z,81.46
2023-02-07T06:09:20.270Z,81.65
2023-02-07T06:12:06.228Z,81.77
2023-02-07T06:14:54.060Z,81.34
2023-02-07T06:17:39.430Z,81.71
2023-02-07T06:20:24.906Z,81.54
2023-02-07T06:23:11.520Z,81.22
2023-02-07T06:25:56.849Z,81.80
2023-02-07T06:28:42.317Z,81.73
2023-02-07T06:31:27.644Z,81.79
2023-02-07T06:34:12.936Z,81.38
2023-02-07T06:36:58.338Z,81.65
2023-02-07T06:39:43.672Z,81.19
2023-02-07T06:42:29.207Z,81.17
2023-02-07T06:45:14.435Z,81.99
2023-02-07T06:47:59.898Z,81.92
2023-02-07T06:50:45.433Z,81.61
2023-02-07T06:53:30.567Z,81.96
2023-02-07T06:56:18.746Z,81.44
2023-02-07T06:59:07.203Z,82.24
2023-02-07T07:01:52.688Z,81.80
2023-02-07T07:04:37.999Z,82.23
2023-02-07T07:07:23.650Z,82.64
2023-02-07T07:10:13.102Z,82.11
2023-02-07T07:12:59.123Z,81.92
2023-02-07T07:15:46.676Z,82.57
2023-02-07T07:18:31.953Z,82.93
2023-02-07T07:21:17.346Z,82.56
2023-02-07T07:24:02.675Z,82.83
2023-02-07T07:26:50.066Z,83.04
2023-02-07T07:29:35.830Z,82.62
2023-02-07T07:32:33.220Z,83.07
2023-02-07T07:35:20.464Z,82.90
2023-02-07T07:38:05.724Z,83.50
2023-02-07T07:40:51.230Z,83.34
2023-02-07T07:43:36.569Z,83.44
2023-02-07T07:46:22.095Z,83.67
2023-02-07T07:49:07.446Z,83.76
2023-02-07T07:51:52.765Z,83.34
2023-02-07T07:54:38.374Z,83.58
2023-02-07T07:57:28.070Z,83.52
2023-02-07T08:00:13.768Z,83.72
2023-02-07T08:02:59.091Z,84.06
2023-02-07T08:05:45.153Z,83.66
2023-02-07T08:08:30.803Z,84.21
2023-02-07T08:11:16.444Z,84.20
2023-02-07T08:14:02.201Z,83.91
2023-02-07T08:16:47.602Z,84.17
2023-02-07T08:19:32.964Z,84.32
2023-02-07T08:22:18.368Z,84.35
2023-02-07T08:25:04.368Z,83.88
2023-02-07T08:27:49.652Z,84.51
2023-02-07T08:30:35.548Z,84.41
2023-02-07T08:33:21.007Z,84.63
2023-02-07T08:36:09.393Z,84.39
2023-02-07T08:38:54.757Z,84.46
2023-02-07T08:41:40.117Z,84.30
2023-02-07T08:44:25.642Z,84.07
2023-02-07T08:47:11.450Z,84.16
2023-02-07T08:49:56.847Z,84.22
2023-02-07T08:52:42.361Z,84.08
2023-02-07T08:55:27.871Z,83.68
2023-02-07T08:58:13.440Z,83.76
2023-02-07T09:00:58.918Z,84.08
2023-02-07T09:03:44.230Z,83.62
2023-02-07T09:06:29.751Z,83.81
2023-02-07T09:09:15.297Z,83.43
2023-02-07T09:12:00.962Z,83.51
2023-02-07T09:14:46.350Z,83.28
2023-02-07T09:17:31.752Z,83.67
2023-02-07T09:20:17.358Z,83.47
2023-02-07T09:23:17.889Z,83.46
2023-02-07T09:26:06.154Z,83.31
2023-02-07T09:28:51.806Z,83.20
2023-02-07T09:31:37.334Z,83.17
2023-02-07T09:34:24.270Z,83.41
2023-02-07T09:37:09.744Z,83.14
2023-02-07T09:39:55.506Z,82.97
2023-02-07T09:42:53.694Z,82.88
2023-02-07T09:45:45.362Z,82.84
2023-02-07T09:48:52.288Z,82.94
2023-02-07T09:51:40.042Z,82.58
2023-02-07T09:54:47.890Z,82.39
2023-02-07T09:57:42.115Z,82.52
2023-02-07T10:00:35.343Z,82.57
2023-02-07T10:03:24.167Z,82.45
2023-02-07T10:06:22.354Z,82.75
2023-02-07T10:09:14.340Z,82.33
2023-02-07T10:12:46.785Z,82.28
2023-02-07T10:15:35.179Z,82.19
2023-02-07T10:18:40.499Z,81.97
2023-02-07T10:21:55.952Z,81.74
2023-02-07T10:24:47.724Z,81.79
2023-02-07T10:27:42.536Z,81.05
2023-02-07T10:30:33.802Z,80.95
2023-02-07T10:33:23.708Z,81.03
2023-02-07T10:36:14.949Z,80.39
2023-02-07T10:39:11.452Z,80.44
2023-02-07T10:41:57.740Z,80.13
2023-02-07T10:44:43.714Z,79.93
2023-02-07T10:47:30.520Z,79.95
2023-02-07T10:50:29.360Z,79.21
2023-02-07T10:53:54.175Z,79.47
2023-02-07T10:56:46.278Z,79.23
2023-02-07T10:59:46.185Z,79.11
2023-02-07T11:02:31.751Z,78.75
2023-02-07T11:05:17.587Z,78.44
2023-02-07T11:08:22.972Z,78.99
2023-02-07T11:11:27.225Z,78.56
2023-02-07T11:14:21.397Z,78.57
2023-02-07T11:17:07.047Z,78.53
2023-02-07T11:19:53.171Z,78.08
2023-02-07T11:22:38.796Z,78.14
2023-02-07T11:25:34.456Z,77.59
2023-02-07T11:28:22.860Z,77.69
2023-02-07T11:31:14.574Z,77.26
2023-02-07T11:34:24.918Z,77.33
2023-02-07T11:37:26.135Z,77.42
2023-02-07T11:40:29.730Z,77.23
2023-02-07T11:43:22.122Z,76.99
2023-02-07T11:46:10.081Z,76.53
2023-02-07T11:48:58.251Z,76.55
2023-02-07T11:51:44.113Z,76.26
2023-02-07T11:54:31.414Z,76.08
2023-02-07T11:57:17.704Z,75.97
2023-02-07T12:00:21.363Z,75.98
2023-02-07T12:03:16.848Z,75.89
2023-02-07T12:06:05.073Z,75.19
2023-02-07T12:08:52.462Z,75.12
2023-02-07T12:11:40.958Z,74.81
2023-02-07T12:14:30.017Z,74.49
2023-02-07T12:17:23.311Z,73.76
2023-02-07T12:20:33.028Z,73.14
2023-02-07T12:23:43.645Z,72.36
2023-02-07T12:26:31.331Z,71.90
2023-02-07T12:29:16.596Z,70.84
2023-02-07T12:32:07.951Z,69.35
2023-02-07T12:35:14.106Z,68.45
2023-02-07T12:38:13.656Z,68.31
2023-02-07T12:41:15.476Z,69.07
2023-02-07T12:44:09.878Z,68.55
2023-02-07T12:47:05.350Z,68.67
2023-02-07T12:50:04.827Z,68.56
2023-02-07T12:52:59.232Z,68.76
2023-02-07T12:55:53.040Z,68.64
2023-02-07T12:58:44.413Z,68.27
2023-02-07T13:01:47.057Z,68.59
2023-02-07T13:05:01.586Z,68.60
2023-02-07T13:08:19.829Z,67.53
2023-02-07T13:11:26.856Z,68.17
2023-02-07T13:14:42.868Z,67.44
2023-02-07T13:17:34.268Z,67.80
2023-02-07T13:20:19.827Z,66.32
2023-02-07T13:23:26.876Z,65.99
2023-02-07T13:26:17.390Z,66.92
2023-02-07T13:29:12.290Z,66.87
2023-02-07T13:32:02.222Z,66.90
2023-02-07T13:35:01.156Z,66.66
2023-02-07T13:38:17.486Z,66.25
2023-02-07T13:41:33.926Z,65.89
2023-02-07T13:44:29.947Z,65.06
2023-02-07T13:47:15.098Z,64.97
2023-02-07T13:50:01.664Z,65.59
2023-02-07T13:53:03.130Z,65.91
2023-02-07T13:55:49.654Z,65.04
2023-02-07T13:58:53.631Z,64.98
2023-02-07T14:01:47.799Z,65.81
2023-02-07T14:04:52.768Z,65.77
2023-02-07T14:07:39.754Z,67.23
2023-02-07T14:10:45.885Z,67.22
2023-02-07T14:13:36.354Z,67.33
2023-02-07T14:16:47.705Z,64.35
2023-02-07T14:19:39.669Z,63.00
2023-02-07T14:22:32.317Z,61.07
2023-02-07T14:25:22.484Z,59.83
2023-02-07T14:28:28.945Z,55.50
2023-02-07T14:31:23.297Z,54.65
2023-02-07T14:34:14.593Z,54.15
2023-02-07T14:37:00.818Z,55.56
2023-02-07T14:39:48.073Z,53.00
2023-02-07T14:42:34.079Z,55.33
2023-02-07T14:45:21.596Z,56.60
2023-02-07T14:48:45.381Z,55.86
2023-02-07T14:51:37.099Z,56.33
2023-02-07T14:54:39.779Z,56.32
2023-02-07T14:58:04.970Z,57.52
2023-02-07T15:00:56.254Z,57.52
2023-02-07T15:03:41.882Z,57.11
2023-02-07T15:06:32.607Z,57.61
2023-02-07T15:09:26.520Z,58.40
2023-02-07T15:12:27.022Z,58.57
2023-02-07T15:15:20.780Z,58.50
2023-02-07T15:18:06.424Z,58.46
2023-02-07T15:20:58.531Z,57.87
2023-02-07T15:23:48.655Z,58.31
2023-02-07T15:26:36.395Z,59.35
2023-02-07T15:29:36.858Z,59.56
2023-02-07T15:32:29.789Z,59.39
2023-02-07T15:35:23.040Z,59.56
2023-02-07T15:38:20.698Z,59.10
2023-02-07T15:41:07.653Z,59.62
2023-02-07T15:44:16.478Z,59.56
2023-02-07T15:47:06.801Z,59.92
2023-02-07T15:50:02.823Z,59.72
2023-02-07T15:52:55.217Z,60.25
2023-02-07T15:55:46.725Z,61.07
2023-02-07T15:58:36.020Z,60.80
2023-02-07T16:01:32.500Z,60.96
2023-02-07T16:04:17.931Z,60.65
2023-02-07T16:07:13.421Z,61.11
2023-02-07T16:10:16.577Z,61.14
2023-02-07T16:13:11.949Z,61.21
2023-02-07T16:16:00.197Z,61.87
2023-02-07T16:18:48.461Z,61.91
2023-02-07T16:21:36.024Z,62.21
2023-02-07T16:24:24.484Z,62.69
2023-02-07T16:27:18.649Z,62.57
2023-02-07T16:30:04.768Z,62.79
2023-02-07T16:32:50.940Z,63.15
2023-02-07T16:35:36.376Z,63.39
2023-02-07T16:38:21.707Z,63.51
2023-02-07T16:41:09.643Z,63.65
2023-02-07T16:43:55.499Z,63.56
2023-02-07T16:46:40.949Z,63.67
2023-02-07T16:49:27.810Z,63.91
2023-02-07T16:52:13.709Z,64.21
2023-02-07T16:54:59.107Z,64.24
2023-02-07T16:57:45.976Z,64.28
2023-02-07T17:00:31.571Z,64.54
2023-02-07T17:03:16.940Z,65.08
2023-02-07T17:06:02.667Z,64.75
2023-02-07T17:08:49.798Z,64.70
2023-02-07T17:11:35.788Z,65.03
2023-02-07T17:14:21.861Z,65.39
2023-02-07T17:17:07.754Z,65.31
2023-02-07T17:19:53.528Z,65.43
2023-02-07T17:22:39.081Z,65.53
2023-02-07T17:25:29.483Z,65.62
2023-02-07T17:28:18.440Z,65.69
2023-02-07T17:31:04.170Z,65.87
2023-02-07T17:33:51.640Z,65.64
2023-02-07T17:36:39.081Z,66.09
2023-02-07T17:39:24.760Z,66.21
2023-02-07T17:42:09.996Z,66.46
2023-02-07T17:44:55.317Z,66.46
2023-02-07T17:47:42.529Z,66.17
2023-02-07T17:50:38.020Z,66.25
2023-02-07T17:53:23.669Z,66.75
2023-02-07T17:56:17.570Z,66.88
2023-02-07T17:59:06.498Z,67.15
2023-02-07T18:01:52.643Z,67.28
2023-02-07T18:04:38.008Z,67.36
2023-02-07T18:07:26.357Z,67.20
2023-02-07T18:10:33.820Z,67.79
2023-02-07T18:13:20.849Z,67.54
2023-02-07T18:16:08.178Z,67.82
2023-02-07T18:18:55.421Z,67.72
2023-02-07T18:21:40.924Z,68.07
2023-02-07T18:24:26.712Z,67.73
2023-02-07T18:27:17.030Z,68.19
2023-02-07T18:30:03.233Z,68.10
2023-02-07T18:32:49.189Z,68.68
2023-02-07T18:35:35.021Z,68.30
2023-02-07T18:38:20.985Z,68.46
2023-02-07T18:41:15.039Z,68.57
2023-02-07T18:44:00.444Z,68.84
2023-02-07T18:46:45.907Z,68.53
2023-02-07T18:49:33.987Z,68.97
2023-02-07T18:52:20.065Z,69.11
2023-02-07T18:55:06.138Z,69.26
2023-02-07T18:57:55.677Z,69.61
2023-02-07T19:00:43.324Z,69.41
2023-02-07T19:03:28.528Z,69.97
2023-02-07T19:06:14.219Z,69.79
2023-02-07T19:09:00.530Z,69.93
2023-02-07T19:11:50.541Z,69.84
2023-02-07T19:14:36.242Z,69.99
2023-02-07T19:17:24.829Z,70.27
2023-02-07T19:20:11.272Z,70.21
2023-02-07T19:22:56.616Z,70.25
2023-02-07T19:25:47.596Z,70.17
2023-02-07T19:28:34.502Z,70.34
2023-02-07T19:31:20.541Z,70.49
2023-02-07T19:34:07.427Z,71.12
2023-02-07T19:36:53.885Z,70.74
2023-02-07T19:39:39.426Z,70.82
2023-02-07T19:42:24.942Z,70.95
2023-02-07T19:45:11.331Z,70.92
2023-02-07T19:47:56.557Z,70.69
2023-02-07T19:50:41.987Z,71.17
2023-02-07T19:53:28.764Z,71.19
2023-02-07T19:56:14.644Z,71.11
2023-02-07T19:59:03.125Z,71.45
2023-02-07T20:01:48.548Z,71.32
2023-02-07T20:04:34.425Z,71.57
2023-02-07T20:07:19.750Z,71.56
2023-02-07T20:10:05.508Z,71.74
2023-02-07T20:12:51.089Z,71.77
2023-02-07T20:15:44.343Z,72.25
2023-02-07T20:18:33.742Z,71.98
2023-02-07T20:21:22.334Z,72.00
2023-02-07T20:24:08.146Z,71.92
2023-02-07T20:26:53.750Z,72.37
2023-02-07T20:29:39.111Z,72.22
2023-02-07T20:32:24.556Z,72.20
2023-02-07T20:35:09.939Z,72.35
2023-02-07T20:37:55.230Z,72.47
2023-02-07T20:40:40.884Z,72.80
2023-02-07T20:43:26.426Z,72.62
2023-02-07T20:46:14.194Z,72.49
2023-02-07T20:49:02.778Z,72.36
2023-02-07T20:51:50.088Z,72.84
2023-02-07T20:54:35.284Z,73.05
2023-02-07T20:57:20.944Z,73.24
2023-02-07T21:00:08.584Z,72.78
2023-02-07T21:02:54.237Z,72.29
2023-02-07T21:05:39.876Z,72.86
2023-02-07T21:08:25.199Z,73.45
2023-02-07T21:11:11.812Z,73.00
2023-02-07T21:13:57.111Z,73.12
2023-02-07T21:16:43.077Z,72.98
2023-02-07T21:19:28.678Z,73.29
2023-02-07T21:22:13.794Z,73.45
2023-02-07T21:24:59.062Z,73.24
2023-02-07T21:27:44.477Z,73.51
2023-02-07T21:30:29.794Z,73.49
2023-02-07T21:33:15.770Z,73.57
2023-02-07T21:36:09.695Z,73.64
2023-02-07T21:38:56.664Z,73.52
2023-02-07T21:41:44.034Z,73.54
2023-02-07T21:44:29.687Z,73.67
2023-02-07T21:47:15.019Z,73.91
2023-02-07T21:50:00.318Z,73.88
2023-02-07T21:52:45.775Z,73.82
2023-02-07T21:55:31.979Z,74.14
2023-02-07T21:58:17.795Z,73.94
2023-02-07T22:01:08.428Z,73.75
2023-02-07T22:03:56.033Z,73.95
2023-02-07T22:06:44.147Z,74.04
2023-02-07T22:09:30.301Z,73.83
2023-02-07T22:12:15.867Z,74.16
2023-02-07T22:15:01.134Z,73.96
2023-02-07T22:17:46.717Z,74.35
2023-02-07T22:20:32.403Z,74.23
2023-02-07T22:23:18.671Z,74.14
2023-02-07T22:26:05.320Z,74.49
2023-02-07T22:28:51.176Z,74.64
2023-02-07T22:31:39.081Z,74.88
2023-02-07T22:34:25.080Z,74.17
2023-02-07T22:37:10.457Z,74.71
2023-02-07T22:39:55.927Z,74.61
2023-02-07T22:42:41.326Z,74.91
2023-02-07T22:45:26.996Z,74.29
2023-02-07T22:48:16.655Z,74.55
2023-02-07T22:51:18.365Z,74.77
2023-02-07T22:54:09.998Z,74.77
2023-02-07T22:56:55.360Z,74.43
2023-02-07T22:59:40.617Z,75.07
2023-02-07T23:02:25.966Z,75.07
2023-02-07T23:05:12.008Z,75.03
2023-02-07T23:07:57.677Z,75.05
2023-02-07T23:10:43.770Z,75.20
2023-02-07T23:13:29.444Z,74.87
2023-02-07T23:16:18.103Z,74.56
2023-02-07T23:19:07.569Z,74.91
2023-02-07T23:21:53.138Z,75.25
2023-02-07T23:24:38.370Z,74.87
2023-02-07T23:27:23.937Z,75.29
2023-02-07T23:30:11.690Z,75.30
2023-02-07T23:32:56.895Z,75.41
2023-02-07T23:35:42.658Z,75.41
2023-02-07T23:38:28.160Z,75.22
2023-02-07T23:41:13.601Z,75.76
2023-02-07T23:44:02.704Z,75.76
2023-02-07T23:46:48.135Z,75.22
2023-02-07T23:49:33.499Z,75.21
2023-02-07T23:52:20.840Z,75.58
2023-02-07T23:55:06.654Z,75.59
2023-02-07T23:57:52.046Z,75.79
